LDRI/RJK METAR and TAF weather

Enter ICAO airport designator
Station Type Date Time Source
LDRI METAR 2022/06/29 00:30 UTC NOAA

LDRI 290030Z 12002KT 9999 FEW040 28/20 Q1011


Station Type Date Time Source
LDRI Decoded METAR 2022/06/29 00:30 UTC NOAA

Rijeka / Omisalj, Croatia (LDRI) 45-13N 014-35E
Jun 28, 2022 - 08:30 PM EDT / 2022.06.29 0030 UTC
Wind: from the ESE (120 degrees) at 2 MPH (2 KT):0
Visibility: greater than 7 mile(s):0
Sky conditions: mostly clear
Temperature: 82 F (28 C)
Dew Point: 68 F (20 C)
Relative Humidity: 61%
Pressure (altimeter): 29.85 in. Hg (1011 hPa)
ob: LDRI 290030Z 12002KT 9999 FEW040 28/20 Q1011
cycle: 0

Station Type Date Time Source
LDRI TAF 2022/06/28 18:31 UTC NOAA

TAF COR LDRI 281726Z 2818/2918 06008KT CAVOK TX33/2912Z TN24/2903Z PROB30
TEMPO 2822/2904 VRB15KT TS FEW050CB PROB40
TEMPO 2910/2916 30008KT

Example: see airport list